Flight Track Log - Related Links

Times and Time Zones

All times are in EDT time to prevent confusion due to time zone crossing. See the N78ML flight status page for this flight to view local times or setup timezone preferences in your user account.


Time Position Orientation Groundspeed Altitude Reporting Facility
EDT Latitude Longitude Course Direction KTS MPH feet Rate Location/Type
Mon 02:31:25 PM 34.4031 -119.8350 175° South 93 107 700  Level Los Angeles Center
Mon 02:32:18 PM 34.3836 -119.8328 175° South 105 121 1,100 730 Climbing Los Angeles Center
Mon 02:33:20 PM 34.3767 -119.8750 259° West 116 133 2,100 823 Climbing Los Angeles Center
Mon 02:34:22 PM 34.3717 -119.9056 259° West 103 119 2,800 835 Climbing Los Angeles Center
Mon 02:34:39 PM 34.3711 -119.9158 266° West 98 113 3,200 667 Climbing Los Angeles Center
Mon 02:35:25 PM 34.3719 -119.9381 273° West 100 115 3,500 393 Climbing Los Angeles Center
Mon 02:36:26 PM 34.4103 -119.9356 North 117 135 3,900 488 Climbing Los Angeles Center
Mon 02:37:28 PM 34.4447 -119.9386 356° North 123 142 4,500 484 Climbing Los Angeles Center
Mon 02:38:30 PM 34.4792 -119.9425 355° North 124 143 4,900 432 Climbing Los Angeles Center
Mon 02:39:33 PM 34.5214 -119.9475 354° North 126 145 5,400 480 Climbing Los Angeles Center
Mon 02:40:35 PM 34.5550 -119.9503 356° North 123 142 5,900 484 Climbing Los Angeles Center
Mon 02:41:37 PM 34.5900 -119.9539 355° North 124 143 6,400 484 Climbing Los Angeles Center
Mon 02:42:39 PM 34.6286 -119.9567 357° North 126 145 6,900 435 Climbing Los Angeles Center
Mon 02:43:41 PM 34.6644 -119.9614 354° North 129 148 7,300 387 Climbing Los Angeles Center
Mon 02:44:43 PM 34.7022 -119.9631 358° North 133 153 7,700 484 Climbing Los Angeles Center
Mon 02:45:45 PM 34.7375 -119.9667 355° North 129 148 8,300 484 Climbing Los Angeles Center
Mon 02:46:47 PM 34.7750 -119.9714 354° North 133 153 8,700 397 Climbing Los Angeles Center
Mon 02:48:01 PM 34.8231 -119.9753 356° North 142 163 9,200 438 Climbing Los Angeles Center
Mon 02:49:04 PM 34.8736 -119.9811 355° North 150 173 9,700 384 Climbing Los Angeles Center
Mon 02:50:06 PM 34.9169 -119.9853 355° North 154 177 10,000 339 Climbing Los Angeles Center
Mon 02:51:08 PM 34.9608 -119.9886 356° North 156 180 10,400 97 Climbing Los Angeles Center
Mon 02:52:10 PM 35.0072 -119.9925 356° North 165 190 10,200 -48 Descending Los Angeles Center
Mon 02:53:12 PM 35.0622 -119.9997 354° North 166 191 10,300 48 Climbing Los Angeles Center
Mon 02:54:15 PM 35.1078 -120.0039 356° North 165 190 10,300 96 Level Los Angeles Center
Mon 02:55:17 PM 35.1489 -120.0178 345° North 159 183 10,500  Climbing Los Angeles Center
Mon 02:56:19 PM 35.1922 -120.0292 348° North 158 182 10,300  Descending Los Angeles Center
Mon 02:57:21 PM 35.2344 -120.0400 348° North 157 181 10,500 48 Climbing Los Angeles Center
Mon 02:58:23 PM 35.2875 -120.0522 349° North 161 185 10,400  Descending Los Angeles Center
Mon 02:59:25 PM 35.3328 -120.0656 346° North 167 192 10,500  Climbing Los Angeles Center
Mon 03:00:27 PM 35.3775 -120.0783 347° North 166 191 10,400 -75 Descending Los Angeles Center
Mon 03:00:45 PM 35.3953 -120.0833 347° North 167 192 10,400 75 Level Oakland Center
Mon 03:01:47 PM 35.4389 -120.0944 348° North 163 188 10,500 49 Climbing Oakland Center
Mon 03:02:48 PM 35.4833 -120.1058 348° North 164 189 10,500 -49 Level Oakland Center
Mon 03:03:49 PM 35.5281 -120.1189 347° North 167 192 10,400 -49 Descending Oakland Center
Mon 03:04:51 PM 35.5736 -120.1278 351° North 168 193 10,400  Level Oakland Center
Mon 03:05:52 PM 35.6186 -120.1339 354° North 165 190 10,400  Level Oakland Center
Mon 03:06:54 PM 35.6636 -120.1444 349° North 166 191 10,400  Level Oakland Center
Mon 03:07:55 PM 35.7181 -120.1528 353° North 166 191 10,400 49 Level Oakland Center
Mon 03:08:56 PM 35.7642 -120.1603 352° North 167 192 10,500 49 Climbing Oakland Center
Mon 03:09:58 PM 35.8106 -120.1683 352° North 169 194 10,500  Level Oakland Center
Mon 03:10:59 PM 35.8567 -120.1772 351° North 169 194 10,500  Level Oakland Center
Mon 03:12:01 PM 35.9033 -120.1817 356° North 169 194 10,500  Level Oakland Center
Mon 03:13:02 PM 35.9478 -120.1892 352° North 165 190 10,500  Level Oakland Center
Mon 03:14:03 PM 35.9925 -120.2003 349° North 164 189 10,500  Level Oakland Center
Mon 03:15:05 PM 36.0378 -120.2011 359° North 168 193 10,500  Level Oakland Center
Mon 03:16:06 PM 36.0839 -120.2042 357° North 164 189 10,500  Level Oakland Center
Mon 03:17:07 PM 36.1397 -120.2075 357° North 169 194 10,500  Level Oakland Center
Mon 03:18:09 PM 36.1864 -120.2106 357° North 168 193 10,500  Level Oakland Center
Mon 03:19:10 PM 36.2317 -120.2144 356° North 166 191 10,500  Level Oakland Center
Mon 03:20:12 PM 36.2772 -120.2167 358° North 164 189 10,500  Level Oakland Center
Mon 03:21:13 PM 36.3239 -120.2194 357° North 167 192 10,500  Level Oakland Center
Mon 03:22:14 PM 36.3692 -120.2231 356° North 164 189 10,500  Level Oakland Center
Mon 03:23:16 PM 36.4150 -120.2272 356° North 165 190 10,500  Level Oakland Center
Mon 03:24:17 PM 36.4608 -120.2300 357° North 165 190 10,500  Level Oakland Center
Mon 03:25:19 PM 36.5156 -120.2342 356° North 164 189 10,500  Level Oakland Center
Mon 03:26:20 PM 36.5619 -120.2375 357° North 166 191 10,500  Level Oakland Center
Mon 03:27:21 PM 36.6069 -120.2408 357° North 162 186 10,500  Level Oakland Center
Mon 03:28:23 PM 36.6531 -120.2450 356° North 167 192 10,500  Level Oakland Center
Mon 03:29:24 PM 36.6972 -120.2472 358° North 160 184 10,500  Level Oakland Center
Mon 03:30:26 PM 36.7422 -120.2500 357° North 161 185 10,500  Level Oakland Center
Mon 03:31:27 PM 36.7861 -120.2547 355° North 160 184 10,500  Level Oakland Center
Mon 03:32:28 PM 36.8358 -120.2578 357° North 159 183 10,500  Level Oakland Center
Mon 03:33:30 PM 36.8786 -120.2608 357° North 161 185 10,500  Level Oakland Center
Mon 03:34:31 PM 36.9236 -120.2650 356° North 162 186 10,500  Level Oakland Center
Mon 03:35:32 PM 36.9681 -120.2681 357° North 160 184 10,500  Level Oakland Center
Mon 03:36:34 PM 37.0119 -120.2714 357° North 158 182 10,500  Level Oakland Center
Mon 03:37:35 PM 37.0669 -120.2764 356° North 166 191 10,500  Level Oakland Center
Mon 03:38:36 PM 37.1097 -120.2792 357° North 155 178 10,500  Level Oakland Center
Mon 03:39:38 PM 37.1550 -120.2825 357° North 162 186 10,500  Level Oakland Center
Mon 03:40:39 PM 37.1994 -120.2858 357° North 160 184 10,500  Level Oakland Center
Mon 03:41:40 PM 37.2439 -120.2889 357° North 159 183 10,500  Level Oakland Center
Mon 03:42:42 PM 37.2886 -120.2931 356° North 161 185 10,500  Level Oakland Center
Mon 03:43:43 PM 37.3336 -120.2947 358° North 160 184 10,500  Level Oakland Center
Mon 03:44:44 PM 37.3800 -120.2961 359° North 168 193 10,500  Level Oakland Center
Mon 03:45:46 PM 37.4250 -120.2986 357° North 164 189 10,500  Level Oakland Center
Mon 03:46:47 PM 37.4694 -120.3025 356° North 161 185 10,500  Level Oakland Center
Mon 03:47:48 PM 37.5231 -120.3053 358° North 161 185 10,500  Level Oakland Center
Mon 03:48:50 PM 37.5678 -120.3089 356° North 160 184 10,500  Level Oakland Center
Mon 03:49:51 PM 37.6125 -120.3108 358° North 160 184 10,500  Level Oakland Center
Mon 03:50:52 PM 37.6556 -120.3147 356° North 158 182 10,500  Level Oakland Center
Mon 03:51:53 PM 37.6994 -120.3178 357° North 157 181 10,500  Level Oakland Center
Mon 03:52:54 PM 37.7444 -120.3206 357° North 160 184 10,500  Level Oakland Center
Mon 03:53:56 PM 37.7878 -120.3253 355° North 159 183 10,500  Level Oakland Center
Mon 03:54:57 PM 37.8328 -120.3272 358° North 160 184 10,500  Level Oakland Center
Mon 03:55:58 PM 37.8758 -120.3308 356° North 159 183 10,500  Level Oakland Center
Mon 03:56:59 PM 37.9194 -120.3333 357° North 156 180 10,500  Level Oakland Center
Mon 03:58:01 PM 37.9733 -120.3386 356° North 160 184 10,500  Level Oakland Center
Mon 03:59:02 PM 38.0189 -120.3414 357° North 164 189 10,500  Level Oakland Center
Mon 04:00:03 PM 38.0625 -120.3442 357° North 160 184 10,500  Level Oakland Center
Mon 04:01:04 PM 38.1058 -120.3461 358° North 157 181 10,500  Level Oakland Center
Mon 04:02:06 PM 38.1503 -120.3500 356° North 159 183 10,500  Level Oakland Center
Mon 04:03:07 PM 38.1950 -120.3531 357° North 162 186 10,500  Level Oakland Center
Mon 04:04:08 PM 38.2397 -120.3572 356° North 161 185 10,500  Level Oakland Center
Mon 04:05:09 PM 38.2831 -120.3597 357° North 159 183 10,500  Level Oakland Center
Mon 04:06:11 PM 38.3294 -120.3628 357° North 165 190 10,500  Level Oakland Center
Mon 04:07:12 PM 38.3736 -120.3667 356° North 162 186 10,500  Level Oakland Center
Mon 04:08:13 PM 38.4300 -120.3708 357° North 169 194 10,500  Level Oakland Center
Mon 04:09:15 PM 38.4753 -120.3733 358° North 165 190 10,500  Level Oakland Center
Mon 04:10:16 PM 38.5200 -120.3758 357° North 162 186 10,500  Level Oakland Center
Mon 04:11:17 PM 38.5658 -120.3794 356° North 166 191 10,500  Level Oakland Center
Mon 04:12:19 PM 38.6117 -120.3828 357° North 167 192 10,500 -49 Level Oakland Center
Mon 04:13:20 PM 38.6581 -120.3867 356° North 167 192 10,400 -49 Descending Oakland Center
Mon 04:14:21 PM 38.7031 -120.3908 356° North 165 190 10,400 -98 Level Oakland Center
Mon 04:15:23 PM 38.7467 -120.3978 353° North 161 185 10,200 -98 Descending Oakland Center
Mon 04:16:24 PM 38.7842 -120.3972 North 144 166 10,200 49 Level Oakland Center
Mon 04:17:25 PM 38.8308 -120.3961 North 141 162 10,300  Climbing Oakland Center
Mon 04:18:27 PM 38.8692 -120.4006 355° North 139 160 10,200  Descending Oakland Center
Mon 04:19:28 PM 38.9075 -120.4047 355° North 139 160 10,300 49 Climbing Oakland Center
Mon 04:20:29 PM 38.9456 -120.4064 358° North 138 159 10,300  Level Oakland Center
Mon 04:21:31 PM 38.9842 -120.4086 357° North 138 159 10,300  Level Oakland Center
Mon 04:22:32 PM 39.0267 -120.4114 357° North 150 173 10,300  Level Oakland Center
Mon 04:23:34 PM 39.0669 -120.4142 357° North 146 168 10,300  Level Oakland Center
Mon 04:24:35 PM 39.1083 -120.4158 358° North 148 170 10,300 -98 Level Oakland Center
Mon 04:25:36 PM 39.1506 -120.4228 353° North 151 174 10,100 -197 Descending Oakland Center

Login

Don't have an account? Register now (free) for customized features, flight alerts, and more!